sensor_id;sensor_type;location;lat;lon;timestamp;P1;durP1;ratioP1;P2;durP2;ratioP2
67556;SDS011;54387;53.526;49.300;2023-05-23T00:01:56;15.13;;;7.90;;
67556;SDS011;54387;53.526;49.300;2023-05-23T00:04:23;14.02;;;7.80;;
67556;SDS011;54387;53.526;49.300;2023-05-23T00:06:51;13.98;;;8.55;;
67556;SDS011;54387;53.526;49.300;2023-05-23T00:09:18;16.55;;;8.30;;
67556;SDS011;54387;53.526;49.300;2023-05-23T00:11:44;15.18;;;8.70;;
67556;SDS011;54387;53.526;49.300;2023-05-23T00:14:11;14.02;;;8.57;;
67556;SDS011;54387;53.526;49.300;2023-05-23T00:16:40;19.10;;;9.80;;
67556;SDS011;54387;53.526;49.300;2023-05-23T00:19:08;18.30;;;9.00;;
67556;SDS011;54387;53.526;49.300;2023-05-23T00:21:35;16.75;;;8.68;;
67556;SDS011;54387;53.526;49.300;2023-05-23T00:24:02;16.42;;;9.52;;
67556;SDS011;54387;53.526;49.300;2023-05-23T00:26:29;18.08;;;9.30;;
67556;SDS011;54387;53.526;49.300;2023-05-23T00:28:56;13.57;;;8.55;;
67556;SDS011;54387;53.526;49.300;2023-05-23T00:31:22;15.60;;;8.73;;
67556;SDS011;54387;53.526;49.300;2023-05-23T00:33:48;16.42;;;8.95;;
67556;SDS011;54387;53.526;49.300;2023-05-23T00:36:15;17.08;;;9.40;;
67556;SDS011;54387;53.526;49.300;2023-05-23T00:38:41;13.05;;;9.27;;
67556;SDS011;54387;53.526;49.300;2023-05-23T00:41:10;20.67;;;9.30;;
67556;SDS011;54387;53.526;49.300;2023-05-23T00:43:37;20.25;;;10.30;;
67556;SDS011;54387;53.526;49.300;2023-05-23T00:46:03;18.55;;;9.90;;
67556;SDS011;54387;53.526;49.300;2023-05-23T00:48:29;15.60;;;8.98;;
67556;SDS011;54387;53.526;49.300;2023-05-23T00:50:56;19.15;;;9.52;;
67556;SDS011;54387;53.526;49.300;2023-05-23T00:53:23;17.17;;;10.02;;
67556;SDS011;54387;53.526;49.300;2023-05-23T00:55:50;15.48;;;9.82;;
67556;SDS011;54387;53.526;49.300;2023-05-23T00:58:16;18.67;;;10.15;;
67556;SDS011;54387;53.526;49.300;2023-05-23T01:00:43;17.13;;;9.38;;
67556;SDS011;54387;53.526;49.300;2023-05-23T01:03:14;17.98;;;9.30;;
67556;SDS011;54387;53.526;49.300;2023-05-23T01:05:45;18.17;;;9.18;;
67556;SDS011;54387;53.526;49.300;2023-05-23T01:08:12;15.00;;;9.77;;
67556;SDS011;54387;53.526;49.300;2023-05-23T01:10:40;18.15;;;9.82;;
67556;SDS011;54387;53.526;49.300;2023-05-23T01:13:16;15.77;;;10.15;;
67556;SDS011;54387;53.526;49.300;2023-05-23T01:16:02;20.73;;;9.02;;
67556;SDS011;54387;53.526;49.300;2023-05-23T01:18:53;18.00;;;9.75;;
67556;SDS011;54387;53.526;49.300;2023-05-23T01:21:33;21.25;;;9.98;;
67556;SDS011;54387;53.526;49.300;2023-05-23T01:29:45;21.00;;;9.98;;
67556;SDS011;54387;53.526;49.300;2023-05-23T01:32:13;17.63;;;9.82;;
67556;SDS011;54387;53.526;49.300;2023-05-23T01:34:41;18.23;;;10.68;;
67556;SDS011;54387;53.526;49.300;2023-05-23T01:37:09;16.63;;;9.65;;
67556;SDS011;54387;53.526;49.300;2023-05-23T01:39:36;20.73;;;9.88;;
67556;SDS011;54387;53.526;49.300;2023-05-23T01:42:03;17.40;;;10.45;;
67556;SDS011;54387;53.526;49.300;2023-05-23T01:44:29;19.75;;;10.13;;
67556;SDS011;54387;53.526;49.300;2023-05-23T01:46:57;20.08;;;11.85;;
67556;SDS011;54387;53.526;49.300;2023-05-23T01:49:23;24.65;;;11.27;;
67556;SDS011;54387;53.526;49.300;2023-05-23T01:51:51;16.27;;;10.57;;
67556;SDS011;54387;53.526;49.300;2023-05-23T01:54:18;19.25;;;9.60;;
67556;SDS011;54387;53.526;49.300;2023-05-23T01:56:44;23.80;;;10.75;;
67556;SDS011;54387;53.526;49.300;2023-05-23T01:59:12;16.83;;;9.20;;
67556;SDS011;54387;53.526;49.300;2023-05-23T02:01:39;18.85;;;9.88;;
67556;SDS011;54387;53.526;49.300;2023-05-23T02:04:05;17.70;;;9.73;;
67556;SDS011;54387;53.526;49.300;2023-05-23T02:06:32;14.57;;;9.32;;
67556;SDS011;54387;53.526;49.300;2023-05-23T02:08:58;18.63;;;9.52;;
67556;SDS011;54387;53.526;49.300;2023-05-23T02:11:24;16.17;;;9.35;;
67556;SDS011;54387;53.526;49.300;2023-05-23T02:13:51;24.88;;;9.70;;
67556;SDS011;54387;53.526;49.300;2023-05-23T02:16:17;16.05;;;8.68;;
67556;SDS011;54387;53.526;49.300;2023-05-23T02:18:43;21.00;;;9.75;;
67556;SDS011;54387;53.526;49.300;2023-05-23T02:21:10;18.60;;;9.02;;
67556;SDS011;54387;53.526;49.300;2023-05-23T02:23:36;17.23;;;8.77;;
67556;SDS011;54387;53.526;49.300;2023-05-23T02:26:03;18.35;;;9.02;;
67556;SDS011;54387;53.526;49.300;2023-05-23T02:28:29;17.38;;;9.00;;
67556;SDS011;54387;53.526;49.300;2023-05-23T02:30:55;16.65;;;8.73;;
67556;SDS011;54387;53.526;49.300;2023-05-23T02:33:21;14.50;;;8.93;;
67556;SDS011;54387;53.526;49.300;2023-05-23T02:35:47;12.85;;;8.10;;
67556;SDS011;54387;53.526;49.300;2023-05-23T02:38:15;15.52;;;8.77;;
67556;SDS011;54387;53.526;49.300;2023-05-23T02:40:44;19.73;;;9.15;;
67556;SDS011;54387;53.526;49.300;2023-05-23T02:43:10;16.25;;;9.88;;
67556;SDS011;54387;53.526;49.300;2023-05-23T02:45:36;16.90;;;8.75;;
67556;SDS011;54387;53.526;49.300;2023-05-23T02:48:02;18.02;;;9.13;;
67556;SDS011;54387;53.526;49.300;2023-05-23T02:50:29;15.00;;;8.85;;
67556;SDS011;54387;53.526;49.300;2023-05-23T02:52:55;17.27;;;8.70;;
67556;SDS011;54387;53.526;49.300;2023-05-23T02:55:22;13.45;;;8.90;;
67556;SDS011;54387;53.526;49.300;2023-05-23T02:57:48;53.20;;;11.23;;
67556;SDS011;54387;53.526;49.300;2023-05-23T03:00:15;16.90;;;8.13;;
67556;SDS011;54387;53.526;49.300;2023-05-23T03:02:42;15.60;;;9.30;;
67556;SDS011;54387;53.526;49.300;2023-05-23T03:05:08;17.73;;;9.48;;
67556;SDS011;54387;53.526;49.300;2023-05-23T03:07:34;18.65;;;9.63;;
67556;SDS011;54387;53.526;49.300;2023-05-23T03:10:01;14.60;;;8.32;;
67556;SDS011;54387;53.526;49.300;2023-05-23T03:12:27;15.80;;;7.97;;
67556;SDS011;54387;53.526;49.300;2023-05-23T03:14:53;13.23;;;8.20;;
67556;SDS011;54387;53.526;49.300;2023-05-23T03:17:20;17.65;;;8.40;;
67556;SDS011;54387;53.526;49.300;2023-05-23T03:19:46;15.43;;;8.50;;
67556;SDS011;54387;53.526;49.300;2023-05-23T03:22:12;16.83;;;7.60;;
67556;SDS011;54387;53.526;49.300;2023-05-23T03:24:38;15.23;;;8.00;;
67556;SDS011;54387;53.526;49.300;2023-05-23T03:27:04;12.45;;;8.10;;
67556;SDS011;54387;53.526;49.300;2023-05-23T03:29:31;17.50;;;8.05;;
67556;SDS011;54387;53.526;49.300;2023-05-23T03:31:57;19.23;;;8.30;;
67556;SDS011;54387;53.526;49.300;2023-05-23T03:34:23;14.23;;;7.68;;
67556;SDS011;54387;53.526;49.300;2023-05-23T03:36:51;12.02;;;7.22;;
67556;SDS011;54387;53.526;49.300;2023-05-23T03:39:17;11.57;;;6.72;;
67556;SDS011;54387;53.526;49.300;2023-05-23T03:41:43;12.02;;;7.57;;
67556;SDS011;54387;53.526;49.300;2023-05-23T03:44:10;14.55;;;7.45;;
67556;SDS011;54387;53.526;49.300;2023-05-23T03:46:36;22.13;;;8.68;;
67556;SDS011;54387;53.526;49.300;2023-05-23T03:49:02;15.63;;;7.65;;
67556;SDS011;54387;53.526;49.300;2023-05-23T03:51:28;11.88;;;7.78;;
67556;SDS011;54387;53.526;49.300;2023-05-23T03:53:56;11.68;;;6.85;;
67556;SDS011;54387;53.526;49.300;2023-05-23T03:56:22;9.15;;;6.53;;
67556;SDS011;54387;53.526;49.300;2023-05-23T03:58:48;12.82;;;7.32;;
67556;SDS011;54387;53.526;49.300;2023-05-23T04:01:15;15.48;;;6.88;;
67556;SDS011;54387;53.526;49.300;2023-05-23T04:03:41;11.85;;;5.95;;
67556;SDS011;54387;53.526;49.300;2023-05-23T04:06:07;10.70;;;6.55;;
67556;SDS011;54387;53.526;49.300;2023-05-23T04:08:33;11.80;;;6.43;;
67556;SDS011;54387;53.526;49.300;2023-05-23T04:11:00;13.45;;;8.13;;
67556;SDS011;54387;53.526;49.300;2023-05-23T04:13:27;11.80;;;6.18;;
67556;SDS011;54387;53.526;49.300;2023-05-23T04:15:55;11.57;;;6.55;;
67556;SDS011;54387;53.526;49.300;2023-05-23T04:18:21;12.43;;;6.57;;
67556;SDS011;54387;53.526;49.300;2023-05-23T04:20:48;11.15;;;6.25;;
67556;SDS011;54387;53.526;49.300;2023-05-23T04:23:14;9.30;;;5.80;;
67556;SDS011;54387;53.526;49.300;2023-05-23T04:25:40;10.75;;;5.93;;
67556;SDS011;54387;53.526;49.300;2023-05-23T04:28:06;13.13;;;6.60;;
67556;SDS011;54387;53.526;49.300;2023-05-23T04:30:35;9.48;;;6.13;;
67556;SDS011;54387;53.526;49.300;2023-05-23T04:33:01;8.57;;;5.82;;
67556;SDS011;54387;53.526;49.300;2023-05-23T04:35:27;10.98;;;5.28;;
67556;SDS011;54387;53.526;49.300;2023-05-23T04:37:56;12.43;;;5.70;;
67556;SDS011;54387;53.526;49.300;2023-05-23T04:40:22;10.30;;;4.97;;
67556;SDS011;54387;53.526;49.300;2023-05-23T04:42:49;10.60;;;5.05;;
67556;SDS011;54387;53.526;49.300;2023-05-23T04:45:18;9.20;;;5.25;;
67556;SDS011;54387;53.526;49.300;2023-05-23T04:47:44;11.43;;;5.35;;
67556;SDS011;54387;53.526;49.300;2023-05-23T04:50:11;9.45;;;5.22;;
67556;SDS011;54387;53.526;49.300;2023-05-23T04:52:39;11.20;;;5.13;;
67556;SDS011;54387;53.526;49.300;2023-05-23T04:55:06;9.88;;;5.43;;
67556;SDS011;54387;53.526;49.300;2023-05-23T04:57:33;8.27;;;4.68;;
67556;SDS011;54387;53.526;49.300;2023-05-23T05:00:00;8.07;;;4.70;;
67556;SDS011;54387;53.526;49.300;2023-05-23T05:02:26;8.30;;;4.45;;
67556;SDS011;54387;53.526;49.300;2023-05-23T05:04:53;7.60;;;4.65;;
67556;SDS011;54387;53.526;49.300;2023-05-23T05:07:19;7.50;;;4.72;;
67556;SDS011;54387;53.526;49.300;2023-05-23T05:09:45;10.10;;;5.13;;
67556;SDS011;54387;53.526;49.300;2023-05-23T05:12:11;11.88;;;4.82;;
67556;SDS011;54387;53.526;49.300;2023-05-23T05:14:38;10.70;;;4.70;;
67556;SDS011;54387;53.526;49.300;2023-05-23T05:17:04;9.20;;;4.32;;
67556;SDS011;54387;53.526;49.300;2023-05-23T05:19:31;6.30;;;4.63;;
67556;SDS011;54387;53.526;49.300;2023-05-23T05:21:58;7.32;;;3.90;;
67556;SDS011;54387;53.526;49.300;2023-05-23T05:24:24;5.68;;;4.10;;
67556;SDS011;54387;53.526;49.300;2023-05-23T05:26:52;9.45;;;4.40;;
67556;SDS011;54387;53.526;49.300;2023-05-23T05:29:19;6.55;;;4.00;;
67556;SDS011;54387;53.526;49.300;2023-05-23T05:31:45;7.15;;;3.50;;
67556;SDS011;54387;53.526;49.300;2023-05-23T05:34:11;6.05;;;3.88;;
67556;SDS011;54387;53.526;49.300;2023-05-23T05:36:38;12.88;;;5.93;;
67556;SDS011;54387;53.526;49.300;2023-05-23T05:39:11;6.10;;;3.80;;
67556;SDS011;54387;53.526;49.300;2023-05-23T05:41:38;6.93;;;3.22;;
67556;SDS011;54387;53.526;49.300;2023-05-23T05:44:07;8.57;;;3.55;;
67556;SDS011;54387;53.526;49.300;2023-05-23T05:46:34;7.68;;;3.25;;
67556;SDS011;54387;53.526;49.300;2023-05-23T05:49:00;5.72;;;3.45;;
67556;SDS011;54387;53.526;49.300;2023-05-23T05:51:26;5.03;;;3.30;;
67556;SDS011;54387;53.526;49.300;2023-05-23T05:53:53;6.68;;;3.08;;
67556;SDS011;54387;53.526;49.300;2023-05-23T05:56:20;5.70;;;3.33;;
67556;SDS011;54387;53.526;49.300;2023-05-23T05:58:47;9.63;;;5.55;;
67556;SDS011;54387;53.526;49.300;2023-05-23T06:01:13;9.32;;;3.40;;
67556;SDS011;54387;53.526;49.300;2023-05-23T06:03:39;6.22;;;3.42;;
67556;SDS011;54387;53.526;49.300;2023-05-23T06:06:05;7.05;;;2.95;;
67556;SDS011;54387;53.526;49.300;2023-05-23T06:08:33;5.15;;;3.45;;
67556;SDS011;54387;53.526;49.300;2023-05-23T06:10:59;7.00;;;3.22;;
67556;SDS011;54387;53.526;49.300;2023-05-23T06:13:26;7.65;;;2.95;;
67556;SDS011;54387;53.526;49.300;2023-05-23T06:15:52;4.35;;;3.20;;
67556;SDS011;54387;53.526;49.300;2023-05-23T06:18:18;7.28;;;3.38;;
67556;SDS011;54387;53.526;49.300;2023-05-23T06:20:45;7.07;;;3.28;;
67556;SDS011;54387;53.526;49.300;2023-05-23T06:23:11;9.10;;;3.10;;
67556;SDS011;54387;53.526;49.300;2023-05-23T06:25:39;7.13;;;3.47;;
67556;SDS011;54387;53.526;49.300;2023-05-23T06:28:08;4.97;;;3.63;;
67556;SDS011;54387;53.526;49.300;2023-05-23T06:30:36;6.10;;;2.85;;
67556;SDS011;54387;53.526;49.300;2023-05-23T06:33:03;7.82;;;3.05;;
67556;SDS011;54387;53.526;49.300;2023-05-23T06:35:29;14.38;;;3.30;;
67556;SDS011;54387;53.526;49.300;2023-05-23T06:37:55;17.33;;;3.30;;
67556;SDS011;54387;53.526;49.300;2023-05-23T06:40:22;6.03;;;3.17;;
67556;SDS011;54387;53.526;49.300;2023-05-23T06:42:48;4.03;;;3.03;;
67556;SDS011;54387;53.526;49.300;2023-05-23T06:45:14;4.47;;;2.92;;
67556;SDS011;54387;53.526;49.300;2023-05-23T06:47:40;6.43;;;3.20;;
67556;SDS011;54387;53.526;49.300;2023-05-23T06:50:11;7.10;;;2.80;;
67556;SDS011;54387;53.526;49.300;2023-05-23T06:52:37;7.63;;;3.28;;
67556;SDS011;54387;53.526;49.300;2023-05-23T06:55:04;5.80;;;3.33;;
67556;SDS011;54387;53.526;49.300;2023-05-23T06:57:31;5.55;;;3.17;;
67556;SDS011;54387;53.526;49.300;2023-05-23T06:59:57;6.15;;;3.00;;
67556;SDS011;54387;53.526;49.300;2023-05-23T07:02:23;11.68;;;5.95;;
67556;SDS011;54387;53.526;49.300;2023-05-23T07:04:50;5.13;;;3.05;;
67556;SDS011;54387;53.526;49.300;2023-05-23T07:07:16;5.20;;;3.20;;
67556;SDS011;54387;53.526;49.300;2023-05-23T07:09:42;4.38;;;2.92;;
67556;SDS011;54387;53.526;49.300;2023-05-23T07:12:08;5.45;;;2.63;;
67556;SDS011;54387;53.526;49.300;2023-05-23T07:14:35;6.70;;;2.80;;
67556;SDS011;54387;53.526;49.300;2023-05-23T07:17:02;9.13;;;3.65;;
67556;SDS011;54387;53.526;49.300;2023-05-23T07:19:29;4.47;;;2.80;;
67556;SDS011;54387;53.526;49.300;2023-05-23T07:21:55;8.88;;;3.28;;
67556;SDS011;54387;53.526;49.300;2023-05-23T07:24:21;4.95;;;2.92;;
67556;SDS011;54387;53.526;49.300;2023-05-23T07:26:48;8.95;;;2.97;;
67556;SDS011;54387;53.526;49.300;2023-05-23T07:29:14;11.57;;;4.03;;
67556;SDS011;54387;53.526;49.300;2023-05-23T07:31:40;8.27;;;3.00;;
67556;SDS011;54387;53.526;49.300;2023-05-23T07:34:07;7.47;;;2.95;;
67556;SDS011;54387;53.526;49.300;2023-05-23T07:36:33;5.25;;;2.65;;
67556;SDS011;54387;53.526;49.300;2023-05-23T07:39:00;4.18;;;2.75;;
67556;SDS011;54387;53.526;49.300;2023-05-23T07:41:26;6.25;;;2.72;;
67556;SDS011;54387;53.526;49.300;2023-05-23T07:43:52;5.95;;;2.60;;
67556;SDS011;54387;53.526;49.300;2023-05-23T07:46:19;6.68;;;3.03;;
67556;SDS011;54387;53.526;49.300;2023-05-23T07:48:47;7.30;;;2.80;;
67556;SDS011;54387;53.526;49.300;2023-05-23T07:51:14;7.22;;;3.15;;
67556;SDS011;54387;53.526;49.300;2023-05-23T07:53:46;5.70;;;2.72;;
67556;SDS011;54387;53.526;49.300;2023-05-23T07:56:12;12.93;;;3.05;;
67556;SDS011;54387;53.526;49.300;2023-05-23T07:58:38;4.18;;;3.00;;
67556;SDS011;54387;53.526;49.300;2023-05-23T08:01:05;7.55;;;2.88;;
67556;SDS011;54387;53.526;49.300;2023-05-23T08:03:31;8.40;;;2.85;;
67556;SDS011;54387;53.526;49.300;2023-05-23T08:05:59;6.50;;;2.78;;
67556;SDS011;54387;53.526;49.300;2023-05-23T08:08:25;6.47;;;3.05;;
67556;SDS011;54387;53.526;49.300;2023-05-23T08:10:51;8.10;;;2.65;;
67556;SDS011;54387;53.526;49.300;2023-05-23T08:13:17;6.32;;;2.67;;
67556;SDS011;54387;53.526;49.300;2023-05-23T08:15:44;7.10;;;2.05;;
67556;SDS011;54387;53.526;49.300;2023-05-23T08:18:10;3.08;;;2.15;;
67556;SDS011;54387;53.526;49.300;2023-05-23T08:20:36;5.03;;;2.40;;
67556;SDS011;54387;53.526;49.300;2023-05-23T08:23:03;8.90;;;2.67;;
67556;SDS011;54387;53.526;49.300;2023-05-23T08:25:29;7.25;;;2.30;;
67556;SDS011;54387;53.526;49.300;2023-05-23T08:27:59;6.07;;;2.78;;
67556;SDS011;54387;53.526;49.300;2023-05-23T08:30:26;6.22;;;2.25;;
67556;SDS011;54387;53.526;49.300;2023-05-23T08:32:53;7.28;;;3.00;;
67556;SDS011;54387;53.526;49.300;2023-05-23T08:35:20;4.95;;;2.50;;
67556;SDS011;54387;53.526;49.300;2023-05-23T08:37:47;7.93;;;3.05;;
67556;SDS011;54387;53.526;49.300;2023-05-23T08:40:19;7.78;;;3.10;;
67556;SDS011;54387;53.526;49.300;2023-05-23T08:42:46;5.57;;;2.58;;
67556;SDS011;54387;53.526;49.300;2023-05-23T08:45:13;6.20;;;2.75;;
67556;SDS011;54387;53.526;49.300;2023-05-23T08:47:44;5.15;;;2.33;;
67556;SDS011;54387;53.526;49.300;2023-05-23T08:50:11;5.53;;;2.83;;
67556;SDS011;54387;53.526;49.300;2023-05-23T08:52:42;4.38;;;2.55;;
67556;SDS011;54387;53.526;49.300;2023-05-23T08:55:15;6.93;;;2.72;;
67556;SDS011;54387;53.526;49.300;2023-05-23T08:57:43;6.45;;;2.53;;
67556;SDS011;54387;53.526;49.300;2023-05-23T09:00:13;6.35;;;2.38;;
67556;SDS011;54387;53.526;49.300;2023-05-23T09:02:44;4.05;;;2.60;;
67556;SDS011;54387;53.526;49.300;2023-05-23T09:05:11;6.03;;;2.72;;
67556;SDS011;54387;53.526;49.300;2023-05-23T09:07:39;4.68;;;2.90;;
67556;SDS011;54387;53.526;49.300;2023-05-23T09:10:07;11.57;;;4.13;;
67556;SDS011;54387;53.526;49.300;2023-05-23T09:12:35;8.57;;;2.92;;
67556;SDS011;54387;53.526;49.300;2023-05-23T09:15:17;3.72;;;2.13;;
67556;SDS011;54387;53.526;49.300;2023-05-23T09:17:43;12.18;;;3.40;;
67556;SDS011;54387;53.526;49.300;2023-05-23T09:20:11;4.18;;;2.40;;
67556;SDS011;54387;53.526;49.300;2023-05-23T09:22:39;9.95;;;2.40;;
67556;SDS011;54387;53.526;49.300;2023-05-23T09:25:06;6.00;;;2.50;;
67556;SDS011;54387;53.526;49.300;2023-05-23T09:27:33;10.05;;;6.60;;
67556;SDS011;54387;53.526;49.300;2023-05-23T09:30:06;6.22;;;2.10;;
67556;SDS011;54387;53.526;49.300;2023-05-23T09:32:34;5.43;;;2.20;;
67556;SDS011;54387;53.526;49.300;2023-05-23T09:35:04;5.60;;;2.00;;
67556;SDS011;54387;53.526;49.300;2023-05-23T09:37:33;4.47;;;2.30;;
67556;SDS011;54387;53.526;49.300;2023-05-23T09:40:06;5.35;;;2.15;;
67556;SDS011;54387;53.526;49.300;2023-05-23T09:42:36;7.70;;;2.17;;
67556;SDS011;54387;53.526;49.300;2023-05-23T09:45:09;4.07;;;2.28;;
67556;SDS011;54387;53.526;49.300;2023-05-23T09:47:36;3.30;;;1.83;;
67556;SDS011;54387;53.526;49.300;2023-05-23T09:50:03;4.63;;;1.90;;
67556;SDS011;54387;53.526;49.300;2023-05-23T09:52:36;7.05;;;2.42;;
67556;SDS011;54387;53.526;49.300;2023-05-23T09:55:03;5.88;;;2.88;;
67556;SDS011;54387;53.526;49.300;2023-05-23T09:57:32;5.90;;;2.35;;
67556;SDS011;54387;53.526;49.300;2023-05-23T10:00:02;8.98;;;2.97;;
67556;SDS011;54387;53.526;49.300;2023-05-23T10:08:18;8.00;;;2.40;;
67556;SDS011;54387;53.526;49.300;2023-05-23T10:13:29;5.57;;;2.38;;
67556;SDS011;54387;53.526;49.300;2023-05-23T10:15:58;3.30;;;2.20;;
67556;SDS011;54387;53.526;49.300;2023-05-23T10:18:34;7.18;;;2.38;;
67556;SDS011;54387;53.526;49.300;2023-05-23T10:21:14;5.38;;;2.47;;
67556;SDS011;54387;53.526;49.300;2023-05-23T10:23:48;6.97;;;2.47;;
67556;SDS011;54387;53.526;49.300;2023-05-23T10:26:16;4.97;;;2.25;;
67556;SDS011;54387;53.526;49.300;2023-05-23T10:28:43;6.78;;;2.30;;
67556;SDS011;54387;53.526;49.300;2023-05-23T10:31:12;3.75;;;2.10;;
67556;SDS011;54387;53.526;49.300;2023-05-23T10:33:40;4.07;;;2.33;;
67556;SDS011;54387;53.526;49.300;2023-05-23T10:36:18;4.00;;;2.10;;
67556;SDS011;54387;53.526;49.300;2023-05-23T10:38:57;15.35;;;3.42;;
67556;SDS011;54387;53.526;49.300;2023-05-23T10:41:50;3.92;;;2.10;;
67556;SDS011;54387;53.526;49.300;2023-05-23T10:46:57;4.03;;;2.17;;
67556;SDS011;54387;53.526;49.300;2023-05-23T10:49:41;3.83;;;2.00;;
67556;SDS011;54387;53.526;49.300;2023-05-23T10:52:13;2.60;;;1.80;;
67556;SDS011;54387;53.526;49.300;2023-05-23T10:54:43;2.53;;;2.05;;
67556;SDS011;54387;53.526;49.300;2023-05-23T10:57:10;5.05;;;2.05;;
67556;SDS011;54387;53.526;49.300;2023-05-23T10:59:41;4.20;;;2.10;;
67556;SDS011;54387;53.526;49.300;2023-05-23T11:02:11;4.78;;;2.30;;
67556;SDS011;54387;53.526;49.300;2023-05-23T11:04:40;6.90;;;2.50;;
67556;SDS011;54387;53.526;49.300;2023-05-23T11:10:02;3.58;;;2.30;;
67556;SDS011;54387;53.526;49.300;2023-05-23T11:12:37;3.05;;;2.30;;
67556;SDS011;54387;53.526;49.300;2023-05-23T11:17:53;3.65;;;2.33;;
67556;SDS011;54387;53.526;49.300;2023-05-23T11:20:24;5.68;;;2.60;;
67556;SDS011;54387;53.526;49.300;2023-05-23T11:22:52;3.17;;;2.10;;
67556;SDS011;54387;53.526;49.300;2023-05-23T11:25:20;4.10;;;2.42;;
67556;SDS011;54387;53.526;49.300;2023-05-23T11:28:05;4.90;;;2.63;;
67556;SDS011;54387;53.526;49.300;2023-05-23T11:30:31;3.40;;;2.15;;
67556;SDS011;54387;53.526;49.300;2023-05-23T11:33:09;3.70;;;2.20;;
67556;SDS011;54387;53.526;49.300;2023-05-23T11:35:42;5.53;;;2.40;;
67556;SDS011;54387;53.526;49.300;2023-05-23T11:38:09;6.57;;;2.00;;
67556;SDS011;54387;53.526;49.300;2023-05-23T11:40:39;3.15;;;2.30;;
67556;SDS011;54387;53.526;49.300;2023-05-23T11:43:12;4.90;;;2.45;;
67556;SDS011;54387;53.526;49.300;2023-05-23T11:45:39;4.35;;;1.98;;
67556;SDS011;54387;53.526;49.300;2023-05-23T11:48:10;3.45;;;2.17;;
67556;SDS011;54387;53.526;49.300;2023-05-23T11:50:50;5.68;;;2.50;;
67556;SDS011;54387;53.526;49.300;2023-05-23T11:53:18;6.30;;;2.93;;
67556;SDS011;54387;53.526;49.300;2023-05-23T11:55:50;4.10;;;2.33;;
67556;SDS011;54387;53.526;49.300;2023-05-23T11:58:25;15.45;;;2.60;;
67556;SDS011;54387;53.526;49.300;2023-05-23T12:03:26;4.72;;;2.33;;
67556;SDS011;54387;53.526;49.300;2023-05-23T12:05:54;4.68;;;2.38;;
67556;SDS011;54387;53.526;49.300;2023-05-23T12:08:21;3.25;;;2.20;;
67556;SDS011;54387;53.526;49.300;2023-05-23T12:10:48;3.15;;;2.47;;
67556;SDS011;54387;53.526;49.300;2023-05-23T12:13:17;4.63;;;2.03;;
67556;SDS011;54387;53.526;49.300;2023-05-23T12:15:44;3.78;;;1.90;;
67556;SDS011;54387;53.526;49.300;2023-05-23T12:18:14;7.38;;;2.15;;
67556;SDS011;54387;53.526;49.300;2023-05-23T12:20:41;6.10;;;2.40;;
67556;SDS011;54387;53.526;49.300;2023-05-23T12:23:07;9.00;;;2.63;;
67556;SDS011;54387;53.526;49.300;2023-05-23T12:25:39;5.03;;;2.65;;
67556;SDS011;54387;53.526;49.300;2023-05-23T12:28:15;6.47;;;2.60;;
67556;SDS011;54387;53.526;49.300;2023-05-23T12:30:44;4.25;;;2.45;;
67556;SDS011;54387;53.526;49.300;2023-05-23T12:33:11;5.97;;;2.47;;
67556;SDS011;54387;53.526;49.300;2023-05-23T12:35:41;3.33;;;2.40;;
67556;SDS011;54387;53.526;49.300;2023-05-23T12:38:13;7.93;;;3.47;;
67556;SDS011;54387;53.526;49.300;2023-05-23T12:40:40;4.05;;;2.40;;
67556;SDS011;54387;53.526;49.300;2023-05-23T12:43:08;4.47;;;2.33;;
67556;SDS011;54387;53.526;49.300;2023-05-23T12:45:35;4.10;;;1.95;;
67556;SDS011;54387;53.526;49.300;2023-05-23T12:48:02;6.32;;;1.98;;
67556;SDS011;54387;53.526;49.300;2023-05-23T12:50:29;4.32;;;2.30;;
67556;SDS011;54387;53.526;49.300;2023-05-23T12:52:55;3.35;;;2.13;;
67556;SDS011;54387;53.526;49.300;2023-05-23T12:55:22;4.13;;;2.22;;
67556;SDS011;54387;53.526;49.300;2023-05-23T12:57:48;4.53;;;2.60;;
67556;SDS011;54387;53.526;49.300;2023-05-23T13:00:15;9.48;;;2.95;;
67556;SDS011;54387;53.526;49.300;2023-05-23T13:02:42;5.07;;;2.22;;
67556;SDS011;54387;53.526;49.300;2023-05-23T13:05:08;4.28;;;2.42;;
67556;SDS011;54387;53.526;49.300;2023-05-23T13:07:35;3.78;;;2.50;;
67556;SDS011;54387;53.526;49.300;2023-05-23T13:10:02;8.65;;;6.90;;
67556;SDS011;54387;53.526;49.300;2023-05-23T13:12:29;5.50;;;2.50;;
67556;SDS011;54387;53.526;49.300;2023-05-23T13:14:55;5.80;;;2.50;;
67556;SDS011;54387;53.526;49.300;2023-05-23T13:17:23;6.30;;;2.40;;
67556;SDS011;54387;53.526;49.300;2023-05-23T13:19:49;5.95;;;2.10;;
67556;SDS011;54387;53.526;49.300;2023-05-23T13:22:15;5.35;;;2.17;;
67556;SDS011;54387;53.526;49.300;2023-05-23T13:24:42;4.72;;;2.28;;
67556;SDS011;54387;53.526;49.300;2023-05-23T13:27:08;5.20;;;2.10;;
67556;SDS011;54387;53.526;49.300;2023-05-23T13:29:35;7.70;;;1.83;;
67556;SDS011;54387;53.526;49.300;2023-05-23T13:32:01;7.97;;;1.98;;
67556;SDS011;54387;53.526;49.300;2023-05-23T13:34:27;8.63;;;2.55;;
67556;SDS011;54387;53.526;49.300;2023-05-23T13:36:54;8.55;;;2.53;;
67556;SDS011;54387;53.526;49.300;2023-05-23T13:39:20;5.75;;;2.10;;
67556;SDS011;54387;53.526;49.300;2023-05-23T13:41:50;5.50;;;2.13;;
67556;SDS011;54387;53.526;49.300;2023-05-23T13:44:16;8.73;;;2.60;;
67556;SDS011;54387;53.526;49.300;2023-05-23T13:46:42;6.65;;;2.25;;
67556;SDS011;54387;53.526;49.300;2023-05-23T13:49:09;4.50;;;2.10;;
67556;SDS011;54387;53.526;49.300;2023-05-23T13:51:35;6.78;;;2.50;;
67556;SDS011;54387;53.526;49.300;2023-05-23T13:54:02;4.60;;;2.38;;
67556;SDS011;54387;53.526;49.300;2023-05-23T13:56:29;3.90;;;2.38;;
67556;SDS011;54387;53.526;49.300;2023-05-23T13:58:55;3.75;;;2.50;;
67556;SDS011;54387;53.526;49.300;2023-05-23T14:01:21;7.25;;;2.20;;
67556;SDS011;54387;53.526;49.300;2023-05-23T14:03:48;5.65;;;2.72;;
67556;SDS011;54387;53.526;49.300;2023-05-23T14:06:15;4.70;;;2.17;;
67556;SDS011;54387;53.526;49.300;2023-05-23T14:08:42;7.85;;;2.88;;
67556;SDS011;54387;53.526;49.300;2023-05-23T14:11:08;6.22;;;2.20;;
67556;SDS011;54387;53.526;49.300;2023-05-23T14:13:34;4.38;;;2.47;;
67556;SDS011;54387;53.526;49.300;2023-05-23T14:16:00;7.65;;;2.50;;
67556;SDS011;54387;53.526;49.300;2023-05-23T14:18:26;8.07;;;2.50;;
67556;SDS011;54387;53.526;49.300;2023-05-23T14:20:53;5.63;;;1.85;;
67556;SDS011;54387;53.526;49.300;2023-05-23T14:23:19;5.82;;;2.25;;
67556;SDS011;54387;53.526;49.300;2023-05-23T14:25:45;4.63;;;2.40;;
67556;SDS011;54387;53.526;49.300;2023-05-23T14:28:12;7.05;;;2.33;;
67556;SDS011;54387;53.526;49.300;2023-05-23T14:30:38;8.68;;;2.63;;
67556;SDS011;54387;53.526;49.300;2023-05-23T14:33:04;6.43;;;2.30;;
67556;SDS011;54387;53.526;49.300;2023-05-23T14:35:31;5.85;;;2.28;;
67556;SDS011;54387;53.526;49.300;2023-05-23T14:37:57;6.63;;;2.45;;
67556;SDS011;54387;53.526;49.300;2023-05-23T14:40:23;3.88;;;2.00;;
67556;SDS011;54387;53.526;49.300;2023-05-23T14:42:49;4.45;;;2.40;;
67556;SDS011;54387;53.526;49.300;2023-05-23T14:45:15;7.05;;;2.63;;
67556;SDS011;54387;53.526;49.300;2023-05-23T14:47:42;6.53;;;2.63;;
67556;SDS011;54387;53.526;49.300;2023-05-23T14:50:08;7.50;;;2.85;;
67556;SDS011;54387;53.526;49.300;2023-05-23T14:52:35;9.88;;;2.80;;
67556;SDS011;54387;53.526;49.300;2023-05-23T14:55:01;9.85;;;2.60;;
67556;SDS011;54387;53.526;49.300;2023-05-23T14:57:27;20.05;;;3.00;;